createdAt,value
2018-11-12T00:00:42.274Z,98.60
2018-11-12T00:02:17.168Z,98.60
2018-11-12T00:03:52.018Z,98.60
2018-11-12T00:05:27.094Z,98.70
2018-11-12T00:07:02.031Z,98.70
2018-11-12T00:08:36.959Z,98.80
2018-11-12T00:10:11.823Z,98.80
2018-11-12T00:11:46.908Z,98.90
2018-11-12T00:13:21.775Z,98.80
2018-11-12T00:14:56.818Z,98.80
2018-11-12T00:16:31.703Z,98.80
2018-11-12T00:18:06.787Z,98.70
2018-11-12T00:19:41.870Z,98.70
2018-11-12T00:21:16.779Z,98.70
2018-11-12T00:22:51.659Z,98.70
2018-11-12T00:24:26.563Z,98.80
2018-11-12T00:26:01.455Z,98.70
2018-11-12T00:27:36.640Z,98.70
2018-11-12T00:29:11.550Z,98.60
2018-11-12T00:30:46.521Z,98.60
2018-11-12T00:32:21.395Z,98.60
2018-11-12T00:33:56.310Z,98.60
2018-11-12T00:35:31.223Z,98.90
2018-11-12T00:37:06.151Z,98.70
2018-11-12T00:38:41.135Z,98.60
2018-11-12T00:40:17.299Z,98.70
2018-11-12T00:41:52.220Z,98.70
2018-11-12T00:43:27.129Z,98.60
2018-11-12T00:45:02.041Z,98.60
2018-11-12T00:46:36.899Z,98.70
2018-11-12T00:48:11.778Z,98.70
2018-11-12T00:49:46.714Z,98.70
2018-11-12T00:51:21.700Z,98.70
2018-11-12T00:52:56.571Z,98.70
2018-11-12T00:54:31.550Z,98.80
2018-11-12T00:56:06.772Z,98.80
2018-11-12T00:57:42.078Z,98.80
2018-11-12T00:59:16.970Z,98.80
2018-11-12T01:00:51.882Z,98.80
2018-11-12T01:02:26.791Z,98.80
2018-11-12T01:04:01.750Z,98.90
2018-11-12T01:05:36.645Z,99.00
2018-11-12T01:07:11.525Z,99.40
2018-11-12T01:08:46.468Z,99.60
2018-11-12T01:10:21.374Z,99.70
2018-11-12T01:11:56.242Z,99.90
2018-11-12T01:13:31.099Z,99.90
2018-11-12T01:15:08.059Z,99.80
2018-11-12T01:16:43.011Z,99.70
2018-11-12T01:18:17.900Z,99.90
2018-11-12T01:19:52.821Z,99.60
2018-11-12T01:21:27.699Z,99.60
2018-11-12T01:23:02.587Z,99.60
2018-11-12T01:24:38.239Z,99.50
2018-11-12T01:26:13.203Z,99.50
2018-11-12T01:27:48.137Z,99.30
2018-11-12T01:29:23.004Z,99.30
2018-11-12T01:31:04.702Z,99.30
2018-11-12T01:32:39.856Z,99.40
2018-11-12T01:34:14.711Z,99.20
2018-11-12T01:35:49.715Z,99.20
2018-11-12T01:37:24.675Z,99.20
2018-11-12T01:38:59.537Z,99.30
2018-11-12T01:40:34.520Z,99.30
2018-11-12T01:42:09.492Z,99.30
2018-11-12T01:43:44.307Z,99.20
2018-11-12T01:45:20.587Z,99.30
2018-11-12T01:46:55.719Z,99.30
2018-11-12T01:48:30.595Z,99.60
2018-11-12T01:50:06.941Z,99.70
2018-11-12T01:51:41.826Z,99.80
2018-11-12T01:53:16.694Z,99.80
2018-11-12T01:54:51.575Z,99.90
2018-11-12T01:56:26.512Z,99.90
2018-11-12T01:58:01.401Z,99.90
2018-11-12T01:59:36.260Z,99.90
2018-11-12T02:01:11.179Z,99.90
2018-11-12T02:02:47.099Z,99.80
2018-11-12T02:04:22.016Z,99.80
2018-11-12T02:06:03.343Z,99.60
2018-11-12T02:07:38.227Z,99.60
2018-11-12T02:09:13.577Z,99.40
2018-11-12T02:10:48.553Z,99.40
2018-11-12T02:12:23.448Z,99.30
2018-11-12T02:13:58.334Z,99.40
2018-11-12T02:15:33.278Z,99.40
2018-11-12T02:17:08.180Z,99.40
2018-11-12T02:18:43.057Z,99.40
2018-11-12T02:20:19.212Z,99.40
2018-11-12T02:21:54.169Z,99.40
2018-11-12T02:23:29.116Z,99.30
2018-11-12T02:25:04.172Z,99.30
2018-11-12T02:26:39.070Z,99.30
2018-11-12T02:28:13.934Z,99.30
2018-11-12T02:29:55.544Z,99.30
2018-11-12T02:31:30.524Z,99.50
2018-11-12T02:33:05.620Z,99.80
2018-11-12T02:34:40.442Z,99.90
2018-11-12T02:36:15.419Z,99.90
2018-11-12T02:37:50.310Z,99.90
2018-11-12T02:39:25.275Z,99.90
2018-11-12T02:41:00.167Z,99.90
2018-11-12T02:42:35.320Z,99.90
2018-11-12T02:44:10.306Z,99.90
2018-11-12T02:45:45.196Z,99.80
2018-11-12T02:47:20.119Z,99.70
2018-11-12T02:48:54.996Z,99.60
2018-11-12T02:50:29.920Z,99.70
2018-11-12T02:52:05.041Z,99.90
2018-11-12T02:53:40.039Z,99.90
2018-11-12T02:55:15.835Z,99.90
2018-11-12T02:56:50.808Z,99.90
2018-11-12T02:58:25.762Z,99.90
2018-11-12T03:00:00.879Z,99.90
2018-11-12T03:01:35.758Z,99.80
2018-11-12T03:03:10.606Z,99.60
2018-11-12T03:04:45.492Z,99.60
2018-11-12T03:06:20.713Z,99.70
2018-11-12T03:07:55.667Z,99.90
2018-11-12T03:09:30.594Z,99.70
2018-11-12T03:11:05.809Z,99.60
2018-11-12T03:12:40.969Z,99.50
2018-11-12T03:14:15.861Z,99.40
2018-11-12T03:15:50.813Z,99.40
2018-11-12T03:17:25.679Z,99.30
2018-11-12T03:19:00.655Z,99.40
2018-11-12T03:20:35.543Z,99.40
2018-11-12T03:22:10.506Z,99.40
2018-11-12T03:23:45.383Z,99.40
2018-11-12T03:25:21.326Z,99.40
2018-11-12T03:26:56.242Z,99.40
2018-11-12T03:28:31.129Z,99.70
2018-11-12T03:30:07.062Z,99.90
2018-11-12T03:31:41.992Z,99.90
2018-11-12T03:33:16.871Z,99.90
2018-11-12T03:34:51.746Z,99.90
2018-11-12T03:36:26.676Z,99.90
2018-11-12T03:38:01.547Z,99.90
2018-11-12T03:39:36.597Z,99.70
2018-11-12T03:41:11.449Z,99.60
2018-11-12T03:42:48.675Z,99.50
2018-11-12T03:44:23.558Z,99.40
2018-11-12T03:45:58.471Z,99.30
2018-11-12T03:47:33.335Z,99.30
2018-11-12T03:49:08.231Z,99.30
2018-11-12T03:50:43.224Z,99.40
2018-11-12T03:52:18.129Z,99.40
2018-11-12T03:53:53.076Z,99.80
2018-11-12T03:55:28.025Z,99.90
2018-11-12T03:57:02.943Z,99.90
2018-11-12T03:58:37.887Z,99.90
2018-11-12T04:00:15.739Z,99.90
2018-11-12T04:01:50.657Z,99.90
2018-11-12T04:03:25.574Z,99.90
2018-11-12T04:05:00.430Z,99.90
2018-11-12T04:06:35.486Z,99.90
2018-11-12T04:08:10.403Z,99.80
2018-11-12T04:09:45.329Z,99.80
2018-11-12T04:11:20.248Z,99.90
2018-11-12T04:12:55.185Z,99.90
2018-11-12T04:14:30.044Z,99.90
2018-11-12T04:16:05.098Z,99.90
2018-11-12T04:17:40.040Z,99.90
2018-11-12T04:19:14.923Z,99.90
2018-11-12T04:20:49.914Z,99.90
2018-11-12T04:22:24.788Z,99.90
2018-11-12T04:23:59.619Z,99.90
2018-11-12T04:25:37.045Z,99.90
2018-11-12T04:27:11.987Z,99.90
2018-11-12T04:28:46.873Z,99.90
2018-11-12T04:30:21.766Z,99.90
2018-11-12T04:31:56.687Z,99.90
2018-11-12T04:33:31.587Z,99.90
2018-11-12T04:35:06.817Z,99.90
2018-11-12T04:36:41.730Z,99.90
2018-11-12T04:38:16.736Z,99.90
2018-11-12T04:39:51.634Z,99.90
2018-11-12T04:41:26.538Z,99.90
2018-11-12T04:43:01.468Z,99.90
2018-11-12T04:44:36.328Z,99.90
2018-11-12T04:46:11.247Z,99.90
2018-11-12T04:47:46.978Z,99.90
2018-11-12T04:49:21.910Z,99.70
2018-11-12T04:50:56.776Z,99.60
2018-11-12T04:52:31.694Z,99.60
2018-11-12T04:54:06.562Z,99.60
2018-11-12T04:55:41.462Z,99.60
2018-11-12T04:57:16.363Z,99.50
2018-11-12T04:58:51.401Z,99.40
2018-11-12T05:00:27.651Z,99.50
2018-11-12T05:02:02.602Z,99.50
2018-11-12T05:03:37.398Z,99.50
2018-11-12T05:05:14.351Z,99.50
2018-11-12T05:06:49.439Z,99.50
2018-11-12T05:08:24.508Z,99.50
2018-11-12T05:09:59.391Z,99.50
2018-11-12T05:11:34.283Z,99.60
2018-11-12T05:13:09.309Z,99.70
2018-11-12T05:14:44.143Z,99.70
2018-11-12T05:16:19.158Z,99.70
2018-11-12T05:17:54.167Z,99.70
2018-11-12T05:19:29.115Z,99.70
2018-11-12T05:21:04.098Z,99.80
2018-11-12T05:22:39.255Z,99.80
2018-11-12T05:24:14.135Z,99.90
2018-11-12T05:25:49.143Z,99.70
2018-11-12T05:27:24.099Z,99.60
2018-11-12T05:28:58.970Z,99.60
2018-11-12T05:30:33.850Z,99.30
2018-11-12T05:32:08.822Z,99.60
2018-11-12T05:33:43.702Z,99.70
2018-11-12T05:35:19.879Z,99.70
2018-11-12T05:36:54.848Z,99.70
2018-11-12T05:38:29.715Z,99.80
2018-11-12T05:40:06.408Z,99.80
2018-11-12T05:41:41.306Z,99.90
2018-11-12T05:43:16.159Z,99.90
2018-11-12T05:44:51.184Z,99.90
2018-11-12T05:46:26.062Z,99.90
2018-11-12T05:48:00.941Z,99.90
2018-11-12T05:49:35.792Z,99.90
2018-11-12T05:51:10.651Z,99.90
2018-11-12T05:52:46.992Z,99.90
2018-11-12T05:54:22.040Z,99.90
2018-11-12T05:55:56.935Z,99.90
2018-11-12T05:57:31.894Z,99.90
2018-11-12T05:59:06.820Z,99.90
2018-11-12T06:00:41.736Z,99.90
2018-11-12T06:02:16.631Z,99.90
2018-11-12T06:03:51.519Z,99.90
2018-11-12T06:05:26.438Z,99.90
2018-11-12T06:07:01.446Z,99.90
2018-11-12T06:08:36.390Z,99.90
2018-11-12T06:10:14.038Z,99.90
2018-11-12T06:11:49.023Z,99.90
2018-11-12T06:13:24.012Z,99.90
2018-11-12T06:14:58.872Z,99.90
2018-11-12T06:16:33.782Z,99.90
2018-11-12T06:18:08.805Z,99.90
2018-11-12T06:19:43.598Z,99.90
2018-11-12T06:21:18.452Z,99.90
2018-11-12T06:22:53.476Z,99.90
2018-11-12T06:24:28.321Z,99.90
2018-11-12T06:26:03.196Z,99.90
2018-11-12T06:27:38.113Z,99.90
2018-11-12T06:29:13.091Z,99.80
2018-11-12T06:30:48.024Z,99.80
2018-11-12T06:32:22.924Z,99.60
2018-11-12T06:33:57.876Z,99.60
2018-11-12T06:35:32.768Z,99.60
2018-11-12T06:37:07.723Z,99.70
2018-11-12T06:38:42.651Z,99.70
2018-11-12T06:40:18.823Z,99.80
2018-11-12T06:41:53.833Z,99.90
2018-11-12T06:43:28.699Z,99.90
2018-11-12T06:45:03.682Z,99.90
2018-11-12T06:46:38.592Z,99.80
2018-11-12T06:48:13.522Z,99.90
2018-11-12T06:49:48.394Z,99.90
2018-11-12T06:51:23.336Z,99.80
2018-11-12T06:52:58.548Z,99.80
2018-11-12T06:54:33.467Z,99.90
2018-11-12T06:56:08.355Z,99.80
2018-11-12T06:57:43.686Z,99.70
2018-11-12T06:59:18.611Z,99.70
2018-11-12T07:00:53.488Z,99.80
2018-11-12T07:02:30.443Z,99.80
2018-11-12T07:04:05.559Z,99.80
2018-11-12T07:05:40.477Z,99.70
2018-11-12T07:07:15.404Z,99.70
2018-11-12T07:08:50.460Z,99.60
2018-11-12T07:10:26.341Z,99.50
2018-11-12T07:12:06.835Z,99.40
2018-11-12T07:13:57.554Z,99.40
2018-11-12T07:15:47.430Z,99.40
2018-11-12T07:17:28.045Z,99.50
2018-11-12T07:19:21.808Z,99.50
2018-11-12T07:20:56.709Z,99.50
2018-11-12T07:22:31.643Z,99.50
2018-11-12T07:24:06.874Z,99.40
2018-11-12T07:25:41.759Z,99.20
2018-11-12T07:27:16.883Z,99.10
2018-11-12T07:28:51.796Z,99.00
2018-11-12T07:30:27.606Z,98.90
2018-11-12T07:32:02.552Z,98.80
2018-11-12T07:33:37.494Z,98.50
2018-11-12T07:35:13.715Z,98.60
2018-11-12T07:36:48.609Z,98.40
2018-11-12T07:38:23.607Z,98.50
2018-11-12T07:39:58.475Z,98.50
2018-11-12T07:41:33.329Z,98.50
2018-11-12T07:43:08.238Z,98.30
2018-11-12T07:44:43.182Z,98.60
2018-11-12T07:46:18.046Z,98.60
2018-11-12T07:47:53.862Z,98.50
2018-11-12T07:49:28.771Z,98.40
2018-11-12T07:51:03.631Z,98.40
2018-11-12T07:52:38.808Z,98.40
2018-11-12T07:54:13.703Z,98.20
2018-11-12T07:55:48.622Z,98.40
2018-11-12T07:57:23.522Z,98.00
2018-11-12T07:58:58.432Z,97.80
2018-11-12T08:00:34.473Z,97.60
2018-11-12T08:02:09.351Z,97.70
2018-11-12T08:03:44.423Z,97.60
2018-11-12T08:05:19.359Z,97.60
2018-11-12T08:06:54.288Z,97.60
2018-11-12T08:08:29.180Z,97.40
2018-11-12T08:10:04.320Z,97.50
2018-11-12T08:11:39.226Z,97.20
2018-11-12T08:13:14.159Z,97.50
2018-11-12T08:14:49.209Z,97.50
2018-11-12T08:16:24.867Z,97.50
2018-11-12T08:18:00.530Z,97.40
2018-11-12T08:19:35.472Z,97.30
2018-11-12T08:21:10.438Z,97.20
2018-11-12T08:22:46.938Z,96.90
2018-11-12T08:24:21.900Z,96.90
2018-11-12T08:25:56.743Z,96.90
2018-11-12T08:27:31.897Z,96.70
2018-11-12T08:29:06.838Z,96.40
2018-11-12T08:30:41.695Z,96.40
2018-11-12T08:32:16.566Z,96.40
2018-11-12T08:33:51.490Z,96.10
2018-11-12T08:35:26.686Z,96.30
2018-11-12T08:37:01.605Z,96.10
2018-11-12T08:38:36.570Z,96.20
2018-11-12T08:40:13.116Z,95.90
2018-11-12T08:41:47.984Z,95.80
2018-11-12T08:43:22.868Z,95.50
2018-11-12T08:44:57.765Z,95.50
2018-11-12T08:46:32.633Z,95.20
2018-11-12T08:48:07.556Z,95.20
2018-11-12T08:49:42.535Z,95.10
2018-11-12T08:51:17.339Z,94.80
2018-11-12T08:52:53.031Z,95.00
2018-11-12T08:54:27.995Z,94.40
2018-11-12T08:56:02.932Z,93.90
2018-11-12T08:57:38.158Z,94.20
2018-11-12T08:59:13.092Z,94.60
2018-11-12T09:00:48.052Z,94.20
2018-11-12T09:02:22.867Z,93.90
2018-11-12T09:03:57.744Z,94.30
2018-11-12T09:05:32.689Z,93.50
2018-11-12T09:07:07.718Z,93.60
2018-11-12T09:08:42.585Z,93.20
2018-11-12T09:10:20.438Z,93.30
2018-11-12T09:11:55.331Z,92.80
2018-11-12T09:13:30.254Z,93.20
2018-11-12T09:15:05.963Z,93.20
2018-11-12T09:16:40.829Z,92.80
2018-11-12T09:18:15.751Z,92.60
2018-11-12T09:19:50.711Z,92.70
2018-11-12T09:21:25.656Z,92.20
2018-11-12T09:23:00.508Z,91.70
2018-11-12T09:24:35.574Z,91.20
2018-11-12T09:26:10.434Z,92.00
2018-11-12T09:27:45.584Z,92.00
2018-11-12T09:29:20.520Z,92.30
2018-11-12T09:30:56.696Z,91.70
2018-11-12T09:32:30.407Z,90.90
2018-11-12T09:34:05.833Z,91.30
2018-11-12T09:35:40.762Z,90.30
2018-11-12T09:37:15.722Z,91.20
2018-11-12T09:38:50.760Z,90.70
2018-11-12T09:40:32.187Z,90.40
2018-11-12T09:42:07.089Z,90.60
2018-11-12T09:43:42.050Z,89.60
2018-11-12T09:45:16.937Z,90.50
2018-11-12T09:46:51.867Z,90.60
2018-11-12T09:48:26.746Z,85.50
2018-11-12T09:50:01.729Z,90.90
2018-11-12T09:51:36.626Z,89.60
2018-11-12T09:53:11.663Z,89.20
2018-11-12T09:54:46.877Z,87.00
2018-11-12T09:56:21.818Z,88.20
2018-11-12T09:57:58.279Z,89.00
2018-11-12T09:59:33.239Z,86.70
2018-11-12T10:01:08.278Z,84.40
2018-11-12T10:02:45.384Z,85.80
2018-11-12T10:04:20.196Z,87.80
2018-11-12T10:05:56.042Z,86.30
2018-11-12T10:07:31.709Z,85.00
2018-11-12T10:09:10.183Z,85.00
2018-11-12T10:10:48.796Z,85.90
2018-11-12T10:12:23.021Z,87.00
2018-11-12T10:13:57.595Z,85.30
2018-11-12T10:15:33.675Z,85.10
2018-11-12T10:17:08.687Z,85.60
2018-11-12T10:18:40.940Z,84.90
2018-11-12T10:20:15.961Z,83.80
2018-11-12T10:21:50.839Z,80.80
2018-11-12T10:23:25.745Z,83.10
2018-11-12T10:25:00.660Z,80.90
2018-11-12T10:26:35.617Z,77.80
2018-11-12T10:28:10.515Z,79.40
2018-11-12T10:29:45.386Z,79.10
2018-11-12T10:31:27.009Z,82.50
2018-11-12T10:33:01.996Z,79.90
2018-11-12T10:34:36.892Z,77.50
2018-11-12T10:36:11.813Z,78.30
2018-11-12T10:37:46.782Z,80.20
2018-11-12T10:39:21.676Z,78.70
2018-11-12T10:40:56.748Z,77.70
2018-11-12T10:42:31.713Z,79.10
2018-11-12T10:44:06.707Z,80.30
2018-11-12T10:45:41.819Z,77.30
2018-11-12T10:47:16.761Z,78.40
2018-11-12T10:48:51.685Z,77.50
2018-11-12T10:50:26.638Z,77.70
2018-11-12T10:52:01.515Z,76.80
2018-11-12T10:53:36.487Z,76.50
2018-11-12T10:55:13.274Z,76.90
2018-11-12T10:56:48.051Z,73.00
2018-11-12T10:58:22.996Z,75.10
2018-11-12T10:59:58.024Z,75.80
2018-11-12T11:01:38.376Z,74.70
2018-11-12T11:03:19.015Z,73.80
2018-11-12T11:04:53.895Z,74.70
2018-11-12T11:06:28.822Z,74.10
2018-11-12T11:08:03.831Z,74.70
2018-11-12T11:09:38.738Z,74.70
2018-11-12T11:11:13.637Z,75.30
2018-11-12T11:12:48.543Z,73.30
2018-11-12T11:14:23.455Z,71.30
2018-11-12T11:15:58.489Z,73.30
2018-11-12T11:17:33.629Z,71.60
2018-11-12T11:19:08.958Z,71.00
2018-11-12T11:20:44.348Z,71.70
2018-11-12T11:22:19.264Z,70.80
2018-11-12T11:23:54.186Z,71.90
2018-11-12T11:25:29.205Z,71.20
2018-11-12T11:27:04.147Z,71.20
2018-11-12T11:28:39.111Z,70.70
2018-11-12T11:30:15.314Z,71.90
2018-11-12T11:31:50.265Z,71.30
2018-11-12T11:33:25.171Z,69.50
2018-11-12T11:35:00.051Z,70.50
2018-11-12T11:36:34.959Z,68.90
2018-11-12T11:38:09.807Z,71.80
2018-11-12T11:39:44.777Z,69.60
2018-11-12T11:41:19.656Z,70.00
2018-11-12T11:42:54.548Z,69.40
2018-11-12T11:44:29.516Z,69.00
2018-11-12T11:46:04.520Z,69.00
2018-11-12T11:47:40.092Z,68.00
2018-11-12T11:49:15.045Z,68.40
2018-11-12T11:50:49.885Z,68.90
2018-11-12T11:52:24.787Z,68.00
2018-11-12T11:53:59.679Z,68.00
2018-11-12T11:55:34.599Z,68.00
2018-11-12T11:57:09.718Z,67.70
2018-11-12T11:58:44.596Z,67.80
2018-11-12T12:00:23.727Z,67.50
2018-11-12T12:01:58.652Z,66.40
2018-11-12T12:03:33.569Z,65.10
2018-11-12T12:05:09.876Z,66.00
2018-11-12T12:06:44.990Z,66.40
2018-11-12T12:08:19.906Z,65.40
2018-11-12T12:09:54.787Z,65.10
2018-11-12T12:11:29.746Z,65.50
2018-11-12T12:13:04.729Z,64.50
2018-11-12T12:14:39.791Z,64.60
2018-11-12T12:16:14.712Z,64.80
2018-11-12T12:17:49.775Z,64.50
2018-11-12T12:19:24.682Z,64.50
2018-11-12T12:20:59.584Z,64.20
2018-11-12T12:22:34.519Z,63.50
2018-11-12T12:24:09.550Z,63.10
2018-11-12T12:25:44.492Z,63.50
2018-11-12T12:27:19.359Z,63.30
2018-11-12T12:28:54.285Z,63.40
2018-11-12T12:30:29.452Z,62.90
2018-11-12T12:32:04.388Z,63.20
2018-11-12T12:33:39.249Z,63.30
2018-11-12T12:35:14.496Z,62.70
2018-11-12T12:36:49.499Z,62.70
2018-11-12T12:38:24.330Z,62.30
2018-11-12T12:39:59.240Z,62.60
2018-11-12T12:41:34.244Z,62.50
2018-11-12T12:43:09.230Z,63.00
2018-11-12T12:44:44.379Z,63.10
2018-11-12T12:46:19.320Z,63.20
2018-11-12T12:47:54.771Z,63.00
2018-11-12T12:49:29.685Z,62.80
2018-11-12T12:51:04.723Z,62.60
2018-11-12T12:52:39.779Z,63.00
2018-11-12T12:54:14.867Z,62.60
2018-11-12T12:55:50.193Z,62.90
2018-11-12T12:57:25.078Z,62.90
2018-11-12T12:59:00.031Z,62.90
2018-11-12T13:00:35.081Z,63.00
2018-11-12T13:02:09.989Z,63.00
2018-11-12T13:03:44.920Z,62.70
2018-11-12T13:05:19.855Z,63.00
2018-11-12T13:06:54.783Z,63.10
2018-11-12T13:08:29.679Z,63.10
2018-11-12T13:10:05.816Z,63.10
2018-11-12T13:11:40.820Z,63.00
2018-11-12T13:13:15.843Z,63.20
2018-11-12T13:14:51.359Z,63.30
2018-11-12T13:16:26.235Z,63.00
2018-11-12T13:18:01.248Z,63.30
2018-11-12T13:19:36.253Z,63.30
2018-11-12T13:21:11.217Z,62.90
2018-11-12T13:22:46.924Z,63.20
2018-11-12T13:24:23.026Z,64.10
2018-11-12T13:25:57.927Z,67.20
2018-11-12T13:27:32.860Z,67.90
2018-11-12T13:29:08.287Z,67.00
2018-11-12T13:30:43.148Z,68.60
2018-11-12T13:32:18.388Z,69.50
2018-11-12T13:33:53.380Z,69.80
2018-11-12T13:35:28.278Z,69.50
2018-11-12T13:37:03.176Z,69.70
2018-11-12T13:38:38.912Z,70.80
2018-11-12T13:40:16.804Z,71.00
2018-11-12T13:41:51.870Z,70.90
2018-11-12T13:43:33.573Z,71.30
2018-11-12T13:45:09.613Z,71.30
2018-11-12T13:46:50.119Z,71.80
2018-11-12T13:48:25.053Z,71.40
2018-11-12T13:50:00.119Z,71.60
2018-11-12T13:51:34.995Z,71.50
2018-11-12T13:53:10.066Z,71.30
2018-11-12T13:54:44.972Z,71.60
2018-11-12T13:56:19.902Z,71.50
2018-11-12T13:57:55.030Z,71.60
2018-11-12T13:59:29.917Z,72.40
2018-11-12T14:01:04.907Z,72.60
2018-11-12T14:02:40.205Z,72.50
2018-11-12T14:04:15.151Z,73.00
2018-11-12T14:05:50.216Z,72.90
2018-11-12T14:07:25.145Z,73.80
2018-11-12T14:09:00.058Z,73.40
2018-11-12T14:10:34.958Z,74.10
2018-11-12T14:12:09.952Z,73.80
2018-11-12T14:13:45.579Z,74.60
2018-11-12T14:15:21.633Z,74.40
2018-11-12T14:16:56.591Z,74.20
2018-11-12T14:18:31.590Z,74.60
2018-11-12T14:20:07.239Z,74.20
2018-11-12T14:21:42.344Z,74.60
2018-11-12T14:23:17.116Z,74.80
2018-11-12T14:24:51.991Z,75.10
2018-11-12T14:26:27.203Z,75.00
2018-11-12T14:28:02.319Z,75.30
2018-11-12T14:29:37.426Z,74.90
2018-11-12T14:31:12.364Z,75.10
2018-11-12T14:32:47.291Z,76.90
2018-11-12T14:34:22.302Z,75.90
2018-11-12T14:35:57.272Z,76.40
2018-11-12T14:37:32.208Z,76.90
2018-11-12T14:39:09.341Z,76.90
2018-11-12T14:40:44.221Z,76.90
2018-11-12T14:42:19.132Z,77.10
2018-11-12T14:43:54.112Z,78.00
2018-11-12T14:45:29.037Z,78.30
2018-11-12T14:47:03.913Z,79.00
2018-11-12T14:48:38.881Z,78.80
2018-11-12T14:50:13.722Z,78.70
2018-11-12T14:51:48.614Z,79.10
2018-11-12T14:53:23.550Z,78.90
2018-11-12T14:54:58.533Z,79.50
2018-11-12T14:56:33.420Z,79.60
2018-11-12T14:58:08.350Z,79.90
2018-11-12T14:59:44.158Z,80.00
2018-11-12T15:01:19.207Z,79.30
2018-11-12T15:02:54.514Z,80.10
2018-11-12T15:04:29.482Z,81.50
2018-11-12T15:06:04.799Z,80.20
2018-11-12T15:07:39.727Z,82.40
2018-11-12T15:09:14.710Z,81.10
2018-11-12T15:10:49.636Z,81.60
2018-11-12T15:12:24.513Z,83.00
2018-11-12T15:13:59.456Z,81.90
2018-11-12T15:15:34.378Z,82.40
2018-11-12T15:17:09.384Z,83.40
2018-11-12T15:18:44.412Z,82.60
2018-11-12T15:20:20.048Z,83.10
2018-11-12T15:21:54.923Z,83.90
2018-11-12T15:23:29.900Z,84.00
2018-11-12T15:25:06.570Z,84.50
2018-11-12T15:26:41.523Z,85.20
2018-11-12T15:28:16.378Z,84.40
2018-11-12T15:29:51.449Z,84.00
2018-11-12T15:31:26.369Z,84.00
2018-11-12T15:33:01.364Z,84.70
2018-11-12T15:34:36.269Z,84.40
2018-11-12T15:36:11.144Z,84.80
2018-11-12T15:37:46.622Z,86.00
2018-11-12T15:39:21.586Z,86.10
2018-11-12T15:40:56.653Z,86.40
2018-11-12T15:42:31.592Z,87.70
2018-11-12T15:44:06.793Z,86.60
2018-11-12T15:45:41.707Z,86.30
2018-11-12T15:47:16.599Z,86.30
2018-11-12T15:48:51.555Z,86.70
2018-11-12T15:50:32.024Z,86.90
2018-11-12T15:52:06.911Z,87.80
2018-11-12T15:53:41.855Z,87.90
2018-11-12T15:55:16.841Z,87.90
2018-11-12T15:56:51.739Z,88.20
2018-11-12T15:58:26.654Z,88.30
2018-11-12T16:00:01.602Z,89.10
2018-11-12T16:01:36.613Z,90.00
2018-11-12T16:03:11.475Z,89.40
2018-11-12T16:04:46.422Z,89.70
2018-11-12T16:06:21.319Z,90.00
2018-11-12T16:07:56.183Z,89.80
2018-11-12T16:09:31.095Z,90.10
2018-11-12T16:11:06.088Z,90.40
2018-11-12T16:12:41.344Z,90.90
2018-11-12T16:14:16.279Z,90.80
2018-11-12T16:15:51.226Z,90.60
2018-11-12T16:17:26.556Z,90.60
2018-11-12T16:19:01.493Z,91.10
2018-11-12T16:20:36.443Z,90.70
2018-11-12T16:22:11.448Z,90.70
2018-11-12T16:23:46.336Z,90.90
2018-11-12T16:25:21.734Z,90.90
2018-11-12T16:26:56.663Z,91.10
2018-11-12T16:28:31.592Z,91.10
2018-11-12T16:30:07.515Z,91.30
2018-11-12T16:31:42.412Z,91.10
2018-11-12T16:33:17.368Z,91.30
2018-11-12T16:34:52.283Z,91.40
2018-11-12T16:36:27.426Z,91.30
2018-11-12T16:38:02.310Z,91.50
2018-11-12T16:39:37.398Z,91.40
2018-11-12T16:41:12.352Z,91.50
2018-11-12T16:42:48.042Z,91.60
2018-11-12T16:44:22.942Z,91.70
2018-11-12T16:45:58.300Z,91.70
2018-11-12T16:47:33.239Z,91.80
2018-11-12T16:49:08.195Z,91.90
2018-11-12T16:50:43.137Z,92.20
2018-11-12T16:52:18.126Z,92.10
2018-11-12T16:53:54.908Z,92.30
2018-11-12T16:55:30.107Z,92.20
2018-11-12T16:57:04.984Z,92.00
2018-11-12T16:58:40.019Z,92.40
2018-11-12T17:00:16.095Z,92.70
2018-11-12T17:01:50.994Z,92.40
2018-11-12T17:03:25.976Z,92.50
2018-11-12T17:05:00.868Z,92.50
2018-11-12T17:06:35.810Z,92.60
2018-11-12T17:08:10.682Z,92.60
2018-11-12T17:09:45.840Z,92.80
2018-11-12T17:11:20.874Z,93.20
2018-11-12T17:12:55.728Z,92.90
2018-11-12T17:14:30.729Z,92.80
2018-11-12T17:16:06.124Z,93.00
2018-11-12T17:17:41.299Z,93.00
2018-11-12T17:19:16.110Z,93.10
2018-11-12T17:20:51.384Z,93.20
2018-11-12T17:22:26.279Z,93.50
2018-11-12T17:24:01.511Z,93.30
2018-11-12T17:25:36.411Z,93.30
2018-11-12T17:27:11.363Z,93.50
2018-11-12T17:28:46.268Z,93.60
2018-11-12T17:30:22.038Z,93.50
2018-11-12T17:31:56.973Z,93.80
2018-11-12T17:33:31.863Z,93.70
2018-11-12T17:35:08.211Z,93.60
2018-11-12T17:36:43.410Z,93.90
2018-11-12T17:38:18.169Z,93.80
2018-11-12T17:39:53.058Z,93.80
2018-11-12T17:41:28.099Z,93.90
2018-11-12T17:43:03.048Z,94.00
2018-11-12T17:44:37.958Z,94.20
2018-11-12T17:46:12.851Z,94.30
2018-11-12T17:47:49.001Z,94.30
2018-11-12T17:49:23.887Z,94.30
2018-11-12T17:50:58.868Z,94.20
2018-11-12T17:52:33.871Z,94.30
2018-11-12T17:54:08.832Z,94.40
2018-11-12T17:55:49.339Z,94.40
2018-11-12T17:57:31.558Z,94.50
2018-11-12T17:59:06.854Z,94.70
2018-11-12T18:00:41.779Z,94.50
2018-11-12T18:02:16.691Z,94.60
2018-11-12T18:03:51.822Z,94.70
2018-11-12T18:05:26.840Z,94.60
2018-11-12T18:07:02.064Z,94.60
2018-11-12T18:08:36.971Z,95.00
2018-11-12T18:10:12.974Z,95.00
2018-11-12T18:11:48.096Z,94.70
2018-11-12T18:13:23.054Z,94.70
2018-11-12T18:14:57.979Z,94.60
2018-11-12T18:16:32.863Z,94.90
2018-11-12T18:18:07.847Z,94.80
2018-11-12T18:19:42.715Z,94.80
2018-11-12T18:21:17.619Z,94.90
2018-11-12T18:22:53.321Z,94.90
2018-11-12T18:24:28.192Z,95.10
2018-11-12T18:26:03.291Z,95.10
2018-11-12T18:27:38.658Z,95.10
2018-11-12T18:29:13.575Z,95.30
2018-11-12T18:30:48.690Z,95.60
2018-11-12T18:32:23.422Z,95.50
2018-11-12T18:33:58.435Z,95.30
2018-11-12T18:35:33.331Z,95.30
2018-11-12T18:37:08.356Z,95.50
2018-11-12T18:38:43.320Z,95.60
2018-11-12T18:40:19.766Z,95.70
2018-11-12T18:41:54.678Z,95.80
2018-11-12T18:43:29.614Z,96.00
2018-11-12T18:45:04.840Z,96.10
2018-11-12T18:46:39.751Z,96.60
2018-11-12T18:48:14.625Z,96.40
2018-11-12T18:49:49.523Z,96.30
2018-11-12T18:51:25.250Z,96.30
2018-11-12T18:53:00.166Z,96.30
2018-11-12T18:54:35.034Z,96.20
2018-11-12T18:56:10.031Z,96.00
2018-11-12T18:57:45.646Z,96.00
2018-11-12T18:59:20.487Z,95.90
2018-11-12T19:00:55.476Z,96.00
2018-11-12T19:02:30.387Z,95.90
2018-11-12T19:04:05.395Z,95.90
2018-11-12T19:05:40.299Z,95.90
2018-11-12T19:07:15.430Z,96.30
2018-11-12T19:08:50.307Z,96.40
2018-11-12T19:10:26.604Z,96.80
2018-11-12T19:12:01.582Z,96.80
2018-11-12T19:13:36.566Z,96.60
2018-11-12T19:15:13.697Z,96.50
2018-11-12T19:16:48.730Z,96.60
2018-11-12T19:18:23.649Z,96.60
2018-11-12T19:19:58.622Z,96.70
2018-11-12T19:21:33.482Z,96.70
2018-11-12T19:23:08.491Z,96.50
2018-11-12T19:24:43.411Z,96.50
2018-11-12T19:26:18.299Z,96.30
2018-11-12T19:27:53.250Z,96.20
2018-11-12T19:29:28.276Z,96.00
2018-11-12T19:31:03.240Z,96.00
2018-11-12T19:32:38.168Z,96.00
2018-11-12T19:34:13.155Z,96.00
2018-11-12T19:35:48.190Z,96.00
2018-11-12T19:37:23.117Z,96.10
2018-11-12T19:38:57.995Z,96.00
2018-11-12T19:40:33.560Z,96.10
2018-11-12T19:42:08.550Z,96.40
2018-11-12T19:43:43.440Z,96.80
2018-11-12T19:45:18.492Z,96.90
2018-11-12T19:46:53.413Z,97.00
2018-11-12T19:48:28.410Z,96.90
2018-11-12T19:50:03.357Z,96.60
2018-11-12T19:51:38.297Z,96.50
2018-11-12T19:53:13.122Z,96.30
2018-11-12T19:54:48.015Z,96.20
2018-11-12T19:56:23.005Z,96.20
2018-11-12T19:57:57.959Z,96.20
2018-11-12T19:59:32.947Z,96.20
2018-11-12T20:01:07.910Z,96.30
2018-11-12T20:02:43.857Z,96.50
2018-11-12T20:04:18.814Z,96.50
2018-11-12T20:05:53.756Z,96.50
2018-11-12T20:07:28.819Z,96.50
2018-11-12T20:09:04.739Z,96.60
2018-11-12T20:10:39.607Z,96.60
2018-11-12T20:12:14.459Z,96.60
2018-11-12T20:13:49.382Z,96.60
2018-11-12T20:15:25.319Z,96.60
2018-11-12T20:17:00.140Z,96.70
2018-11-12T20:18:35.492Z,97.00
2018-11-12T20:20:16.629Z,97.00
2018-11-12T20:21:51.524Z,97.00
2018-11-12T20:23:26.458Z,97.00
2018-11-12T20:25:01.486Z,97.00
2018-11-12T20:26:36.374Z,97.00